Latest Weather Observations for Kingfish B

IDV60801

Issued at 8:42 pm EDT Friday 26 February 2021 (issued every 10 minutes, with the page automatically refreshed every 10 minutes)

About weather observations | Map of weather stations | Latest weather observations for VIC | Other Formats
Station Details ID: 400139 Name: KINGFISH B (PLATFORM) Lat: -38.60 Lon: 148.19 Height: 31.4 m
Data from the previous 72 hours. | See also: Recent months for locations in Victoria
Date/Time
EDT
Temp
°C
App
Temp
°C
Dew
Point
°C
Rel
Hum
%
Delta-T
°C
Wind Press
QNH
hPa
Press
MSL
hPa
Rain since
9am
mm
Dir  Spd
km/h
Gust
km/h
Spd
kts
Gust
kts
26/08:40pm 16.1 11.2 9.9 66 3.2 SSW 26 32 14 17 1013.6 - -
26/08:30pm 16.3 11.4 9.9 66 3.4 SSW 26 30 14 16 1013.5 - -
26/08:20pm 16.3 11.8 10.1 66 3.3 SSW 24 30 13 16 1013.5 - -
26/08:10pm 16.4 11.5 10.0 66 3.4 SSW 26 30 14 16 1013.4 - -
26/07:50pm 16.5 11.3 10.1 66 3.4 SSW 28 32 15 17 1013.4 - -
26/07:30pm 16.5 11.3 10.1 66 3.4 SSW 28 33 15 18 1013.1 - -
26/07:20pm 16.4 11.1 10.0 66 3.4 SSW 28 33 15 18 1013.1 - -
26/07:10pm 16.5 10.8 9.9 65 3.5 SSW 30 39 16 21 1013.1 - -
26/07:00pm 16.6 10.9 9.8 64 3.6 SSW 30 35 16 19 1013.1 - -
26/06:50pm 16.7 11.0 9.7 63 3.7 SSW 30 35 16 19 1013.1 - -
26/06:40pm 16.7 11.0 9.7 63 3.7 SSW 30 37 16 20 1013.0 - -
26/06:30pm 16.6 11.3 9.9 64 3.5 SSW 28 33 15 18 1013.0 - -
26/06:20pm 16.8 11.5 9.9 64 3.6 SSW 28 35 15 19 1012.9 - -
26/06:10pm 16.4 10.6 9.6 64 3.5 SSW 30 37 16 20 1012.9 - -
26/06:00pm 16.5 10.4 9.7 64 3.6 SSW 32 37 17 20 1013.0 - -
26/05:50pm 16.6 10.4 9.3 62 3.8 SSW 32 39 17 21 1013.0 - -
26/05:40pm 16.7 10.2 9.1 61 3.9 SSW 33 39 18 21 1012.9 - -
26/05:30pm 16.8 10.5 8.9 59 4.1 SSW 32 37 17 20 1012.9 - -
26/05:20pm 16.9 10.5 8.4 57 4.3 SW 32 37 17 20 1012.8 - -
26/05:10pm 16.8 10.4 8.5 58 4.2 SSW 32 39 17 21 1013.0 - -
26/05:00pm 17.0 10.6 8.6 57 4.3 SW 32 37 17 20 1012.8 - -
26/04:50pm 17.1 10.5 8.5 57 4.4 SW 33 39 18 21 1012.9 - -
26/04:40pm 17.2 10.7 8.8 57 4.3 SW 33 37 18 20 1013.0 - -
26/04:30pm 17.3 10.4 8.7 57 4.4 SW 35 39 19 21 1012.8 - -
26/04:20pm 17.3 10.8 9.0 58 4.3 SW 33 39 18 21 1012.7 - -
26/04:10pm 17.4 10.9 9.0 58 4.4 SW 33 41 18 22 1013.0 - -
26/04:00pm 17.5 11.0 8.9 57 4.5 SW 33 39 18 21 1013.0 - -
26/03:50pm 17.5 10.9 8.7 56 4.5 SW 33 39 18 21 1013.0 - -
26/03:40pm 17.7 11.1 8.5 55 4.7 SW 33 39 18 21 1012.9 - -
26/03:30pm 17.7 11.1 8.4 54 4.8 SW 33 41 18 22 1013.1 - -
26/03:20pm 17.7 11.3 8.4 54 4.8 SW 32 37 17 20 1013.2 - -
26/03:10pm 18.0 11.6 8.5 53 4.9 SW 32 39 17 21 1013.2 - -
26/03:00pm 18.1 11.5 8.5 53 5.0 SW 33 39 18 21 1013.1 - -
26/02:50pm 18.0 11.4 8.5 53 4.9 SW 33 39 18 21 1012.7 - -
26/02:40pm 18.0 11.0 8.4 53 4.9 SW 35 43 19 23 1012.7 - -
26/02:30pm 18.1 11.2 8.7 54 4.9 SW 35 43 19 23 1012.5 - -
26/01:50am 15.5 7.1 9.5 67 3.1 SW 44 54 24 29 1008.7 - -
26/01:40am 15.6 7.3 9.5 67 3.2 SW 43 52 23 28 1008.8 - -
26/01:30am 15.6 7.4 9.6 67 3.1 SW 43 52 23 28 1008.8 - -
26/01:20am 15.5 7.3 9.7 68 3.0 SW 43 48 23 26 1008.8 - -
26/01:10am 15.6 8.0 10.4 71 2.7 SW 41 50 22 27 1008.8 - -
26/01:00am 15.5 8.7 10.6 72 2.6 SW 37 44 20 24 1008.9 - -
26/12:50am 15.6 9.2 10.8 73 2.6 SW 35 43 19 23 1009.0 - -
26/12:40am 15.4 9.1 10.9 74 2.4 SW 35 41 19 22 1009.2 - -
26/12:30am 15.4 10.1 11.1 75 2.3 SW 30 39 16 21 1009.2 - -
26/12:20am 15.1 9.2 11.1 77 2.1 SW 33 39 18 21 1009.3 - -
26/12:10am 15.0 9.3 11.3 78 2.0 SW 32 41 17 22 1009.2 - -
26/12:00am 15.0 9.4 11.5 79 1.9 SW 32 35 17 19 1009.2 - -
 
Date/Time
EDT
Temp
°C
App
Temp
°C
Dew
Point
°C
Rel
Hum
%
Delta-T
°C
Wind Press
QNH
hPa
Press
MSL
hPa
Rain since
9am
mm
Dir  Spd
km/h
Gust
km/h
Spd
kts
Gust
kts
25/11:50pm 14.9 9.1 11.6 80 1.8 SW 33 39 18 21 1009.1 - -
25/11:40pm 14.9 9.4 11.7 81 1.7 SW 32 35 17 19 1009.3 - -
25/11:30pm 14.8 9.2 11.6 81 1.7 SW 32 37 17 20 1009.4 - -
25/11:20pm 15.0 8.9 11.7 80 1.8 SW 35 41 19 22 1009.5 - -
25/11:10pm 15.2 8.0 11.8 80 1.8 SW 41 44 22 24 1009.7 - -
25/11:00pm 15.5 7.7 11.8 78 2.0 SW 44 50 24 27 1009.4 - -
25/10:50pm 15.6 8.1 12.0 79 2.0 SSW 43 50 23 27 1009.9 - -
25/10:40pm 15.6 8.1 12.0 79 2.0 SSW 43 48 23 26 1009.9 - -
25/10:30pm 15.6 7.9 12.1 80 1.9 SSW 44 50 24 27 1009.7 - -
25/10:20pm 15.6 7.1 12.0 79 2.0 SSW 48 54 26 29 1009.7 - -
25/10:10pm 15.7 6.4 11.9 78 2.1 SSW 52 57 28 31 1009.5 - -
25/10:00pm 15.9 6.7 12.1 78 2.1 SSW 52 61 28 33 1009.3 - -
25/09:50pm 16.2 6.9 12.0 76 2.3 SSW 52 61 28 33 1009.0 - -
25/09:40pm 16.8 7.6 12.3 75 2.5 SSW 52 61 28 33 1008.7 - -
25/09:30pm 16.9 7.7 12.3 74 2.5 SW 52 61 28 33 1007.7 - -
25/09:20pm 17.3 7.4 12.5 73 2.7 SW 56 65 30 35 1007.3 - -
25/09:10pm 17.7 7.7 12.8 73 2.7 SW 57 69 31 37 1006.9 - -
25/09:00pm 17.9 8.1 12.7 71 2.9 SW 56 65 30 35 1006.8 - -
25/08:50pm 18.2 8.2 12.5 69 3.2 SW 57 67 31 36 1007.1 - -
25/08:40pm 18.9 10.2 12.5 66 3.6 SW 50 65 27 35 1007.0 - -
25/08:30pm 19.0 12.3 12.4 65 3.7 SW 39 46 21 25 1006.6 - -
25/08:20pm 19.0 13.5 12.4 65 3.7 SW 33 41 18 22 1006.4 - -
25/08:10pm 19.0 13.4 12.2 64 3.8 SW 33 39 18 21 1006.2 - -
25/08:00pm 19.0 13.3 11.9 63 3.9 SW 33 39 18 21 1006.0 - -
25/07:50pm 19.0 13.3 11.8 63 4.0 SW 33 39 18 21 1005.9 - -
25/07:40pm 19.0 13.9 11.8 63 4.0 SW 30 35 16 19 1006.1 - -
25/07:30pm 19.1 13.3 11.5 61 4.2 SW 33 37 18 20 1006.2 - -
25/07:20pm 19.2 13.4 11.5 61 4.2 SW 33 37 18 20 1006.2 - -
25/07:10pm 19.3 13.6 11.9 62 4.1 SW 33 39 18 21 1006.3 - -
25/07:00pm 19.3 14.5 11.8 62 4.1 SW 28 33 15 18 1006.5 - -
25/06:50pm 19.3 13.7 11.4 60 4.3 SW 32 37 17 20 1006.6 - -
25/06:40pm 19.3 13.6 11.3 60 4.4 SW 32 37 17 20 1006.5 - -
25/06:30pm 19.4 13.5 11.3 59 4.4 SW 33 37 18 20 1006.6 - -
25/06:20pm 19.3 13.6 11.3 60 4.4 SW 32 37 17 20 1006.7 - -
25/06:10pm 19.3 14.3 10.9 58 4.6 SW 28 35 15 19 1006.8 - -
25/06:00pm 19.1 14.8 10.9 59 4.5 SW 24 32 13 17 1007.0 - -
25/05:50pm 19.0 14.3 10.7 58 4.5 SW 26 30 14 16 1006.9 - -
25/05:40pm 18.8 15.0 11.0 60 4.2 SSW 22 28 12 15 1007.0 - -
25/05:30pm 18.6 15.3 11.0 61 4.1 SW 19 22 10 12 1007.1 - -
25/05:20pm 18.6 15.1 10.9 61 4.2 SW 20 24 11 13 1007.2 - -
25/05:10pm 18.5 15.0 10.9 61 4.1 SW 20 24 11 13 1007.2 - -
25/05:00pm 18.7 15.4 10.9 60 4.2 SW 19 22 10 12 1007.1 - -
25/04:50pm 18.7 15.3 10.7 59 4.3 SW 19 22 10 12 1007.1 - -
25/04:40pm 18.6 15.2 10.5 59 4.4 SW 19 22 10 12 1007.2 - -
25/04:30pm 18.5 14.9 10.4 59 4.3 SW 20 24 11 13 1007.3 - -
25/04:20pm 18.5 14.5 10.5 59 4.3 SW 22 26 12 14 1007.5 - -
25/04:10pm 18.4 14.3 10.2 59 4.4 SW 22 26 12 14 1007.6 - -
25/04:00pm 18.4 14.3 10.1 58 4.4 SW 22 26 12 14 1007.8 - -
25/03:50pm 18.4 14.3 10.2 59 4.4 SW 22 26 12 14 1007.9 - -
25/03:40pm 18.5 14.5 10.4 59 4.3 SW 22 26 12 14 1008.1 - -
25/03:30pm 18.6 15.0 10.4 59 4.4 SW 20 26 11 14 1008.2 - -
25/03:20pm 18.7 15.4 11.0 61 4.2 SW 19 22 10 12 1008.2 - -
25/03:10pm 18.8 15.6 11.2 61 4.1 SW 19 24 10 13 1008.4 - -
25/03:00pm 19.1 15.7 11.3 60 4.3 SW 20 26 11 14 1008.5 - -
25/02:50pm 19.2 15.5 11.4 60 4.3 SW 22 24 12 13 1008.6 - -
25/02:40pm 19.2 16.0 11.9 62 4.0 SW 20 24 11 13 1008.7 - -
25/02:30pm 19.2 15.6 11.8 62 4.1 SW 22 26 12 14 1008.7 - -
25/01:50am 18.8 15.8 13.6 72 3.0 NE 22 26 12 14 1014.1 - -
25/01:40am 18.8 15.8 13.7 72 2.9 NE 22 26 12 14 1014.1 - -
25/01:30am 18.8 15.8 13.6 72 3.0 NE 22 24 12 13 1014.3 - -
25/01:20am 18.8 15.7 13.5 71 3.0 NE 22 26 12 14 1014.5 - -
25/01:10am 18.8 15.3 13.5 71 3.0 NE 24 28 13 15 1014.5 - -
25/01:00am 18.6 15.9 13.4 72 3.0 NE 20 26 11 14 1014.7 - -
25/12:50am 18.6 16.1 13.6 72 2.8 ENE 19 24 10 13 1014.9 - -
25/12:40am 18.5 16.0 13.5 72 2.8 E 19 22 10 12 1015.0 - -
25/12:30am 18.4 15.8 13.2 71 2.9 E 19 22 10 12 1015.1 - -
25/12:20am 18.4 16.1 13.0 71 3.0 E 17 20 9 11 1015.3 - -
25/12:10am 18.3 15.9 12.8 70 3.1 ENE 17 20 9 11 1015.4 - -
25/12:00am 18.2 15.8 12.6 70 3.1 E 17 22 9 12 1015.5 - -
 
Date/Time
EDT
Temp
°C
App
Temp
°C
Dew
Point
°C
Rel
Hum
%
Delta-T
°C
Wind Press
QNH
hPa
Press
MSL
hPa
Rain since
9am
mm
Dir  Spd
km/h
Gust
km/h
Spd
kts
Gust
kts
24/11:50pm 18.2 15.7 12.3 68 3.3 ENE 17 22 9 12 1015.5 - -
24/11:40pm 18.1 15.5 12.0 67 3.4 ENE 17 22 9 12 1015.6 - -
24/11:30pm 18.0 15.3 11.7 66 3.5 ENE 17 20 9 11 1015.8 - -
24/11:20pm 17.9 15.2 11.6 66 3.4 ENE 17 24 9 13 1015.8 - -
24/11:10pm 17.9 15.1 11.5 66 3.5 ENE 17 20 9 11 1016.0 - -
24/11:00pm 17.8 15.4 11.4 66 3.5 ENE 15 20 8 11 1016.1 - -
24/10:50pm 17.8 15.4 11.3 65 3.5 ENE 15 22 8 12 1016.1 - -
24/10:10pm 17.6 15.0 10.7 64 3.7 ENE 15 24 8 13 1016.3 - -
24/10:00pm 17.5 14.5 10.6 64 3.7 ENE 17 22 9 12 1016.3 - -
24/09:50pm 17.5 14.8 10.4 63 3.8 ENE 15 20 8 11 1016.3 - -
24/09:40pm 17.4 14.3 10.3 63 3.8 ENE 17 20 9 11 1016.2 - -
24/09:30pm 17.3 14.1 10.1 62 3.8 ENE 17 20 9 11 1016.2 - -
24/09:20pm 17.3 14.1 10.0 62 3.9 ENE 17 22 9 12 1016.3 - -
24/09:10pm 17.3 14.1 9.9 62 3.9 ENE 17 22 9 12 1016.4 - -
24/09:00pm 17.2 13.6 9.8 61 3.9 ENE 19 22 10 12 1016.4 - -
24/08:50pm 17.1 13.4 9.5 61 4.0 ENE 19 24 10 13 1016.4 - -
24/08:40pm 17.1 14.1 9.2 59 4.1 ENE 15 24 8 13 1016.4 - -
24/08:30pm 17.0 14.0 9.2 60 4.1 ENE 15 24 8 13 1016.5 - -
24/08:20pm 17.0 13.9 8.8 58 4.2 ENE 15 22 8 12 1016.6 - -
24/08:10pm 16.9 13.0 8.7 58 4.2 ENE 19 24 10 13 1016.6 - -
24/08:00pm 16.8 12.9 8.7 59 4.2 ENE 19 24 10 13 1016.7 - -
24/07:50pm 16.7 13.2 8.6 59 4.2 ENE 17 24 9 13 1016.8 - -
24/07:40pm 16.7 12.6 8.8 59 4.1 ENE 20 24 11 13 1016.9 - -
24/07:30pm 16.5 13.4 8.8 60 4.0 E 15 24 8 13 1016.9 - -
24/07:20pm 16.4 13.2 8.6 60 4.0 E 15 20 8 11 1017.0 - -
24/07:10pm 16.4 13.2 8.4 59 4.1 E 15 22 8 12 1017.0 - -
24/07:00pm 16.3 13.5 8.4 59 4.0 E 13 20 7 11 1017.0 - -
24/06:50pm 16.3 12.7 8.2 58 4.1 E 17 22 9 12 1017.1 - -
24/06:40pm 16.3 13.0 8.2 58 4.1 E 15 20 8 11 1017.2 - -
24/06:30pm 16.3 13.0 8.2 58 4.1 ESE 15 20 8 11 1017.3 - -
24/06:20pm 16.2 13.6 7.9 58 4.2 ESE 11 17 6 9 1017.3 - -
24/06:10pm 16.2 13.7 8.1 58 4.1 ESE 11 20 6 11 1017.5 - -
24/06:00pm 16.2 13.6 7.9 58 4.2 ESE 11 17 6 9 1017.6 - -
24/05:50pm 16.2 14.0 7.9 58 4.2 ESE 9 15 5 8 1017.8 - -
24/05:40pm 16.2 14.0 7.8 57 4.2 SE 9 13 5 7 1017.9 - -
24/05:30pm 16.1 13.9 7.8 58 4.2 ESE 9 15 5 8 1017.9 - -
24/05:20pm 16.1 14.4 7.6 57 4.3 ESE 6 9 3 5 1018.0 - -
24/05:10pm 16.1 14.4 7.7 57 4.2 SE 6 11 3 6 1018.1 - -
24/05:00pm 16.1 14.4 7.6 57 4.3 ESE 6 13 3 7 1018.2 - -
24/04:50pm 16.1 14.8 7.6 57 4.3 SE 4 7 2 4 1018.4 - -
24/04:40pm 16.0 14.2 7.3 56 4.3 SE 6 9 3 5 1018.5 - -
24/04:30pm 16.1 14.5 7.9 58 4.1 SSE 6 11 3 6 1018.5 - -
24/04:20pm 16.1 14.4 7.7 57 4.2 SSE 6 11 3 6 1018.6 - -
24/04:10pm 16.2 14.9 7.5 56 4.3 SSE 4 7 2 4 1018.7 - -
24/04:00pm 16.1 14.7 7.3 56 4.4 S 4 6 2 3 1018.8 - -
24/03:50pm 16.2 14.8 7.3 55 4.4 SSE 4 9 2 5 1018.9 - -
24/03:40pm 16.3 14.5 7.1 54 4.6 SSE 6 9 3 5 1019.0 - -
24/03:30pm 16.6 14.8 7.1 53 4.7 S 6 7 3 4 1019.2 - -
24/03:20pm 16.8 15.4 7.2 53 4.8 S 4 7 2 4 1019.3 - -
24/03:10pm 17.0 15.3 7.5 53 4.8 S 6 9 3 5 1019.5 - -
24/03:00pm 17.6 16.2 7.2 50 5.2 SSW 4 9 2 5 1019.6 - -
24/02:50pm 17.2 15.8 7.3 52 5.0 SSW 4 7 2 4 1019.7 - -
24/02:40pm 17.6 16.2 7.2 50 5.2 S 4 7 2 4 1019.8 - -
24/02:30pm 18.3 16.6 7.6 49 5.4 SW 6 9 3 5 1019.8 - -
24/02:00am 15.5 12.3 6.8 56 4.3 SW 13 17 7 9 1019.6 - -
24/01:50am 15.6 12.7 6.4 54 4.5 SW 11 19 6 10 1019.7 - -
24/01:40am 15.6 12.5 5.7 51 4.7 SW 11 17 6 9 1019.8 - -
24/01:30am 15.6 11.7 5.5 51 4.8 SSW 15 20 8 11 1020.0 - -
24/01:20am 15.5 11.7 5.7 52 4.7 SW 15 20 8 11 1019.9 - -
24/01:10am 15.7 12.3 6.1 53 4.6 SW 13 19 7 10 1019.9 - -
24/01:00am 15.7 11.8 5.4 50 4.9 SSW 15 19 8 10 1019.9 - -
24/12:50am 15.7 12.3 5.7 51 4.8 SW 13 19 7 10 1019.8 - -
24/12:40am 15.7 11.5 5.7 51 4.8 SSW 17 20 9 11 1019.9 - -
24/12:30am 15.7 11.7 6.5 54 4.5 SW 17 22 9 12 1019.9 - -
24/12:20am 15.7 11.8 7.2 57 4.2 SW 17 22 9 12 1019.8 - -
24/12:10am 15.7 11.9 7.4 57 4.1 SSW 17 22 9 12 1020.0 - -
24/12:00am 15.7 11.9 7.5 58 4.1 SSW 17 22 9 12 1019.9 - -
 
Date/Time
EDT
Temp
°C
App
Temp
°C
Dew
Point
°C
Rel
Hum
%
Delta-T
°C
Wind Press
QNH
hPa
Press
MSL
hPa
Rain since
9am
mm
Dir  Spd
km/h
Gust
km/h
Spd
kts
Gust
kts
23/11:50pm 15.7 11.8 7.2 57 4.2 SSW 17 22 9 12 1020.0 - -
23/11:40pm 15.8 11.9 7.1 56 4.3 SSW 17 20 9 11 1019.9 - -
23/11:30pm 15.7 11.9 7.4 57 4.1 SSW 17 24 9 13 1019.9 - -
23/11:20pm 15.7 11.8 7.1 56 4.2 SSW 17 26 9 14 1019.9 - -
23/11:10pm 15.7 11.7 6.7 55 4.4 SSW 17 20 9 11 1019.9 - -
23/11:00pm 15.7 11.6 6.3 53 4.6 SSW 17 24 9 13 1019.9 - -
23/10:50pm 15.7 11.7 6.6 54 4.4 SSW 17 20 9 11 1019.9 - -
23/10:40pm 15.7 12.0 6.5 54 4.5 SSW 15 22 8 12 1019.8 - -
23/10:30pm 15.7 12.0 6.3 53 4.6 SSW 15 20 8 11 1019.8 - -
23/10:20pm 15.6 11.5 6.2 53 4.6 SSW 17 24 9 13 1019.7 - -
23/10:10pm 15.7 11.6 6.4 54 4.5 SW 17 20 9 11 1019.5 - -
23/10:00pm 15.7 11.5 5.9 52 4.7 SSW 17 22 9 12 1019.4 - -
23/09:50pm 15.7 11.3 6.6 54 4.4 SSW 19 26 10 14 1019.3 - -
23/09:40pm 15.7 11.8 6.9 56 4.3 SSW 17 22 9 12 1019.2 - -
23/09:30pm 15.7 11.5 5.8 51 4.8 SSW 17 22 9 12 1019.1 - -
23/09:20pm 15.7 11.2 5.9 52 4.7 SSW 19 24 10 13 1019.0 - -
23/09:10pm 15.6 11.2 6.4 54 4.5 SSW 19 24 10 13 1018.9 - -
23/09:00pm 15.7 11.1 6.4 54 4.5 SSW 20 26 11 14 1018.9 - -
23/08:50pm 15.7 11.1 6.5 54 4.5 SSW 20 28 11 15 1018.8 - -

Other formats

Comma delimited format used in spreadsheet applications
http://www.bom.gov.au/fwo/IDV60801/IDV60801.55039.axf

JavaScript Object Notation format (JSON) in row-major order
http://www.bom.gov.au/fwo/IDV60801/IDV60801.55039.json

Data quality

Most of these data are generated automatically and are frequently updated. Quality checks on data are not normally performed. It is possible for incorrect values to appear. Refer to information at About Latest Weather Observations and please check the disclaimer before using these data.